Time;durP1;ratioP1;P1;durP2;ratioP2;P2;SDS_P1;SDS_P2;PMS_P1;PMS_P2;Temp;Humidity;BMP_temperature;BMP_pressure;BME280_temperature;BME280_humidity;BME280_pressure;Samples;Min_cycle;Max_cycle;Signal;HPM_P1;HPM_P2
2023/04/26 00:00:16;;;;;;;5.53;2.63;;;4.60;99.90;;;;;;6223115;23;20395;-70
2023/04/26 00:02:42;;;;;;;5.90;2.30;;;4.50;99.90;;;;;;6222785;23;20365;-71
2023/04/26 00:05:08;;;;;;;6.13;2.30;;;4.60;99.90;;;;;;6222089;23;20166;-70
2023/04/26 00:07:34;;;;;;;3.47;1.77;;;4.50;99.90;;;;;;6196279;23;20266;-70
2023/04/26 00:10:00;;;;;;;6.13;2.37;;;4.50;99.90;;;;;;6196191;23;20417;-71
2023/04/26 00:12:26;;;;;;;3.77;2.20;;;4.50;99.90;;;;;;6222997;23;20413;-71
2023/04/26 00:14:51;;;;;;;4.03;2.27;;;4.40;99.90;;;;;;6221908;23;20764;-71
2023/04/26 00:17:17;;;;;;;7.13;2.30;;;4.40;99.90;;;;;;6170182;23;20181;-69
2023/04/26 00:19:44;;;;;;;4.73;1.97;;;4.40;99.90;;;;;;6194587;23;20166;-71
2023/04/26 00:22:09;;;;;;;4.00;2.53;;;4.50;99.90;;;;;;6222498;23;20138;-71
2023/04/26 00:24:35;;;;;;;3.83;1.97;;;4.40;99.90;;;;;;6224694;23;20435;-71
2023/04/26 00:27:04;;;;;;;4.40;2.40;;;4.40;99.90;;;;;;6230037;23;20141;-72
2023/04/26 00:29:29;;;;;;;4.77;2.20;;;4.40;99.90;;;;;;6194814;23;20446;-71
2023/04/26 00:31:56;;;;;;;3.47;1.90;;;4.30;99.90;;;;;;6170867;23;20384;-70
2023/04/26 00:34:22;;;;;;;3.37;2.10;;;4.30;99.90;;;;;;6194518;23;20150;-70
2023/04/26 00:36:48;;;;;;;5.37;2.13;;;4.30;99.90;;;;;;6221644;23;20448;-71
2023/04/26 00:39:15;;;;;;;5.93;2.87;;;4.20;99.90;;;;;;6222671;23;20424;-70
2023/04/26 00:41:40;;;;;;;6.20;2.47;;;4.20;99.90;;;;;;6229100;23;20138;-69
2023/04/26 00:44:06;;;;;;;7.23;3.13;;;4.20;99.90;;;;;;6201466;23;20412;-70
2023/04/26 00:46:32;;;;;;;5.53;2.80;;;4.20;99.90;;;;;;6202182;23;20141;-70
2023/04/26 00:48:57;;;;;;;5.20;2.97;;;4.20;99.90;;;;;;6201192;23;20170;-68
2023/04/26 00:51:23;;;;;;;9.90;3.10;;;4.20;99.90;;;;;;6196472;23;20130;-68
2023/04/26 00:53:49;;;;;;;6.97;3.40;;;4.10;99.90;;;;;;6222309;23;20130;-70
2023/04/26 00:56:15;;;;;;;5.50;2.93;;;4.10;99.90;;;;;;6221661;23;20788;-69
2023/04/26 00:58:41;;;;;;;8.90;2.80;;;4.00;99.90;;;;;;6220831;23;20160;-72
2023/04/26 01:01:07;;;;;;;3.63;2.33;;;4.00;99.90;;;;;;6195109;23;20365;-71
2023/04/26 01:03:33;;;;;;;2.47;1.97;;;4.00;99.90;;;;;;6222522;23;20686;-70
2023/04/26 01:05:59;;;;;;;5.90;2.43;;;3.90;99.90;;;;;;6222263;23;20438;-70
2023/04/26 01:08:25;;;;;;;6.20;3.10;;;3.90;99.90;;;;;;6223170;23;20382;-68
2023/04/26 01:10:52;;;;;;;6.50;3.13;;;3.90;99.90;;;;;;6230080;23;20384;-68
2023/04/26 01:13:18;;;;;;;6.17;2.33;;;3.90;99.90;;;;;;6195506;23;20456;-70
2023/04/26 01:15:46;;;;;;;4.37;2.50;;;3.90;99.90;;;;;;6221152;23;20364;-71
2023/04/26 01:18:15;;;;;;;6.40;2.40;;;3.90;99.90;;;;;;6194048;23;20373;-74
2023/04/26 01:20:41;;;;;;;10.30;3.40;;;4.00;99.90;;;;;;6220170;23;20393;-70
2023/04/26 01:23:08;;;;;;;5.27;2.73;;;3.90;99.90;;;;;;6196049;23;20376;-70
2023/04/26 01:25:34;;;;;;;5.93;2.90;;;4.00;99.90;;;;;;6231586;23;20409;-69
2023/04/26 01:28:00;;;;;;;5.97;2.73;;;4.00;99.90;;;;;;6230468;23;20354;-70
2023/04/26 01:30:26;;;;;;;7.23;2.80;;;4.00;99.90;;;;;;6203931;23;20456;-69
2023/04/26 01:32:51;;;;;;;5.17;2.50;;;4.00;99.90;;;;;;6204159;23;20151;-70
2023/04/26 01:35:18;;;;;;;5.13;2.40;;;3.90;99.90;;;;;;6221444;23;20138;-70
2023/04/26 01:37:46;;;;;;;4.80;2.57;;;3.90;99.90;;;;;;6221067;23;20141;-68
2023/04/26 01:40:12;;;;;;;6.17;2.20;;;3.80;99.90;;;;;;6220547;23;20813;-70
2023/04/26 01:42:38;;;;;;;7.67;3.37;;;3.80;99.90;;;;;;6194507;23;20253;-70
2023/04/26 01:45:04;;;;;;;6.03;3.20;;;3.80;99.90;;;;;;6194980;23;20521;-69
2023/04/26 01:47:49;;;;;;;8.00;3.47;;;3.80;99.90;;;;;;6221977;23;20146;-71
2023/04/26 01:50:15;;;;;;;7.47;3.10;;;3.80;99.90;;;;;;6221450;23;20460;-69
2023/04/26 01:52:41;;;;;;;5.30;2.80;;;3.80;99.90;;;;;;6195399;23;20130;-71
2023/04/26 01:55:07;;;;;;;8.80;3.20;;;3.80;99.90;;;;;;6195790;23;20177;-68
2023/04/26 01:57:32;;;;;;;8.60;3.03;;;3.70;99.90;;;;;;6222120;23;20141;-70
2023/04/26 01:59:58;;;;;;;7.40;2.90;;;3.70;99.90;;;;;;6195172;23;20471;-69
2023/04/26 02:02:25;;;;;;;4.63;2.30;;;3.70;99.90;;;;;;6221855;23;20130;-70
2023/04/26 02:04:50;;;;;;;10.73;4.37;;;3.70;99.90;;;;;;6196199;23;20460;-71
2023/04/26 02:07:16;;;;;;;8.53;3.87;;;3.70;99.90;;;;;;6222582;23;20130;-69
2023/04/26 02:09:45;;;;;;;12.43;3.90;;;3.70;99.90;;;;;;6222022;23;20559;-69
2023/04/26 02:12:11;;;;;;;5.00;3.20;;;3.60;99.90;;;;;;6204293;23;20420;-70
2023/04/26 02:14:36;;;;;;;4.80;3.10;;;3.70;99.90;;;;;;6225614;23;20361;-70
2023/04/26 02:17:03;;;;;;;8.20;3.30;;;3.70;99.90;;;;;;6194843;23;20149;-71
2023/04/26 02:19:29;;;;;;;4.33;2.80;;;3.60;99.90;;;;;;6195363;23;20173;-70
2023/04/26 02:21:56;;;;;;;14.37;3.70;;;3.60;99.90;;;;;;6198110;23;20381;-71
2023/04/26 02:24:23;;;;;;;7.00;3.93;;;3.60;99.90;;;;;;6170822;23;20484;-70
2023/04/26 02:26:50;;;;;;;5.40;2.90;;;3.60;99.90;;;;;;6198020;23;20447;-70
2023/04/26 02:29:16;;;;;;;6.47;3.10;;;3.50;99.90;;;;;;6230179;23;20813;-70
2023/04/26 02:31:42;;;;;;;5.73;3.50;;;3.50;99.90;;;;;;6222280;23;20392;-68
2023/04/26 02:34:07;;;;;;;6.97;3.33;;;3.50;99.90;;;;;;6221554;23;20154;-70
2023/04/26 02:36:33;;;;;;;6.40;2.83;;;3.50;99.90;;;;;;6195561;23;20620;-71
2023/04/26 02:38:59;;;;;;;13.33;3.93;;;3.40;99.90;;;;;;6222097;23;20162;-69
2023/04/26 02:41:26;;;;;;;6.20;3.50;;;3.40;99.90;;;;;;6195143;23;20177;-69
2023/04/26 02:43:52;;;;;;;8.50;4.87;;;3.40;99.90;;;;;;6195659;23;20675;-69
2023/04/26 02:46:17;;;;;;;6.70;3.80;;;3.40;99.90;;;;;;6223533;23;20154;-69
2023/04/26 02:48:43;;;;;;;6.40;3.80;;;3.40;99.90;;;;;;6194372;23;20504;-70
2023/04/26 02:51:09;;;;;;;9.20;3.80;;;3.30;99.90;;;;;;6194655;23;20146;-70
2023/04/26 02:53:35;;;;;;;8.37;3.53;;;3.30;99.90;;;;;;6195888;23;20686;-70
2023/04/26 02:56:01;;;;;;;8.20;3.27;;;3.30;99.90;;;;;;6195395;23;20362;-69
2023/04/26 02:58:27;;;;;;;8.80;4.60;;;3.30;99.90;;;;;;6203227;23;20369;-69
2023/04/26 03:00:57;;;;;;;12.30;4.87;;;3.20;99.90;;;;;;6205323;23;20389;-69
2023/04/26 03:03:23;;;;;;;7.40;3.37;;;3.20;99.90;;;;;;6205845;23;20376;-69
2023/04/26 03:05:49;;;;;;;11.90;3.80;;;3.20;99.90;;;;;;6204482;23;20574;-69
2023/04/26 03:08:14;;;;;;;8.07;3.70;;;3.10;99.90;;;;;;6230720;23;20362;-68
2023/04/26 03:10:40;;;;;;;9.80;5.13;;;3.10;99.90;;;;;;6204288;23;20189;-69
2023/04/26 03:13:06;;;;;;;21.10;5.03;;;3.10;99.90;;;;;;6199586;23;20181;-69
2023/04/26 03:15:32;;;;;;;15.60;4.97;;;3.10;99.90;;;;;;6194138;23;20388;-71
2023/04/26 03:17:58;;;;;;;11.57;5.23;;;3.00;99.90;;;;;;6194997;23;20142;-71
2023/04/26 03:20:24;;;;;;;7.30;4.03;;;3.10;99.90;;;;;;6197080;23;20389;-70
2023/04/26 03:22:50;;;;;;;10.47;4.77;;;3.10;99.90;;;;;;6178902;23;20380;-69
2023/04/26 03:25:16;;;;;;;5.80;4.17;;;3.10;99.90;;;;;;6204837;23;20424;-70
2023/04/26 03:27:42;;;;;;;5.47;3.40;;;3.10;99.90;;;;;;6207051;23;20429;-71
2023/04/26 03:30:08;;;;;;;9.00;4.33;;;3.00;99.90;;;;;;6206934;23;20168;-69
2023/04/26 03:32:35;;;;;;;6.80;4.93;;;3.10;99.90;;;;;;6203311;23;20150;-69
2023/04/26 03:35:01;;;;;;;7.47;4.33;;;3.10;99.90;;;;;;6198244;23;20804;-70
2023/04/26 03:37:27;;;;;;;9.53;4.90;;;3.10;99.90;;;;;;6195398;23;20154;-69
2023/04/26 03:39:59;;;;;;;13.47;5.80;;;3.10;99.90;;;;;;6195491;23;20659;-70
2023/04/26 03:42:25;;;;;;;9.60;6.37;;;3.00;99.90;;;;;;6195243;23;20388;-70
2023/04/26 03:44:51;;;;;;;11.70;5.70;;;3.00;99.90;;;;;;6195371;23;20633;-70
2023/04/26 03:47:17;;;;;;;10.03;5.20;;;3.00;99.90;;;;;;6229713;23;20365;-69
2023/04/26 03:49:42;;;;;;;14.53;5.10;;;3.00;99.90;;;;;;6198524;23;20169;-70
2023/04/26 03:52:08;;;;;;;8.77;5.27;;;3.00;99.90;;;;;;6194217;23;20146;-70
2023/04/26 03:54:34;;;;;;;11.07;4.87;;;3.00;99.90;;;;;;6195336;23;20221;-70
2023/04/26 03:57:00;;;;;;;8.77;4.50;;;3.00;99.90;;;;;;6194930;23;20376;-70
2023/04/26 03:59:26;;;;;;;9.93;5.10;;;3.00;99.90;;;;;;6180028;23;20400;-69
2023/04/26 04:01:52;;;;;;;6.33;4.20;;;3.00;99.90;;;;;;6203240;23;20467;-70
2023/04/26 04:04:19;;;;;;;14.50;5.90;;;3.10;99.90;;;;;;6203822;23;20435;-70
2023/04/26 04:06:46;;;;;;;9.13;5.20;;;3.00;99.90;;;;;;6203514;23;20385;-70
2023/04/26 04:09:12;;;;;;;9.90;5.43;;;3.00;99.90;;;;;;6194523;23;20471;-69
2023/04/26 04:11:37;;;;;;;11.20;5.23;;;3.10;99.90;;;;;;6221695;23;20174;-68
2023/04/26 04:14:03;;;;;;;9.53;5.20;;;3.00;99.90;;;;;;6195651;23;20154;-70
2023/04/26 04:16:28;;;;;;;8.60;4.53;;;3.00;99.90;;;;;;6195648;23;20213;-71
2023/04/26 04:18:56;;;;;;;8.70;4.10;;;3.00;99.90;;;;;;6194432;23;20444;-70
2023/04/26 04:21:21;;;;;;;8.27;5.30;;;3.00;99.90;;;;;;6222499;23;20373;-71
2023/04/26 04:23:49;;;;;;;9.63;6.07;;;3.00;99.90;;;;;;6196378;23;20381;-69
2023/04/26 04:26:15;;;;;;;10.80;5.23;;;3.00;99.90;;;;;;6196382;23;20782;-70
2023/04/26 04:28:40;;;;;;;9.47;5.73;;;2.90;99.90;;;;;;6196010;23;20821;-71
2023/04/26 04:31:10;;;;;;;11.73;5.93;;;3.00;99.90;;;;;;6197987;23;20353;-71
2023/04/26 04:33:36;;;;;;;8.83;5.27;;;3.00;99.90;;;;;;6195290;23;20190;-69
2023/04/26 04:36:05;;;;;;;9.23;4.90;;;3.00;99.90;;;;;;6195734;23;20871;-69
2023/04/26 04:38:31;;;;;;;8.93;5.07;;;3.10;99.90;;;;;;6197561;23;20860;-72
2023/04/26 04:40:57;;;;;;;6.63;4.23;;;3.10;99.90;;;;;;6222495;23;20365;-70
2023/04/26 04:43:23;;;;;;;6.33;3.70;;;3.10;99.90;;;;;;6196484;23;20365;-70
2023/04/26 04:45:49;;;;;;;9.63;4.43;;;3.20;99.90;;;;;;6170816;23;20412;-70
2023/04/26 04:48:15;;;;;;;6.63;4.27;;;3.20;99.90;;;;;;6195158;23;20372;-70
2023/04/26 04:50:41;;;;;;;7.30;4.60;;;3.30;99.90;;;;;;6196878;23;20174;-72
2023/04/26 04:53:11;;;;;;;4.37;3.80;;;3.30;99.90;;;;;;6195825;23;20404;-71
2023/04/26 04:55:37;;;;;;;8.30;4.80;;;3.40;99.90;;;;;;6197431;23;20369;-72
2023/04/26 04:58:03;;;;;;;7.70;4.97;;;3.40;99.90;;;;;;6198277;23;20812;-71
2023/04/26 05:00:30;;;;;;;6.23;4.33;;;3.50;99.90;;;;;;6197236;23;20169;-74
2023/04/26 05:03:08;;;;;;;8.77;3.90;;;3.60;99.90;;;;;;6197760;23;20635;-71
2023/04/26 05:05:34;;;;;;;12.40;7.03;;;3.60;99.90;;;;;;6200055;23;20412;-71
2023/04/26 05:08:00;;;;;;;16.20;7.90;;;3.70;99.90;;;;;;6203532;23;20683;-72
2023/04/26 05:10:25;;;;;;;12.60;7.57;;;3.80;99.90;;;;;;6205757;23;20393;-73
2023/04/26 05:12:52;;;;;;;12.20;6.70;;;3.80;99.90;;;;;;6181805;23;20189;-69
2023/04/26 05:15:18;;;;;;;8.13;5.27;;;3.90;99.90;;;;;;6205327;23;20425;-72
2023/04/26 05:17:43;;;;;;;9.00;5.17;;;3.90;99.90;;;;;;6198463;23;20157;-73
2023/04/26 05:20:15;;;;;;;16.37;6.23;;;3.90;99.90;;;;;;6173822;23;20170;-71
2023/04/26 05:22:41;;;;;;;8.50;5.43;;;4.00;99.90;;;;;;6200094;23;20377;-71
2023/04/26 05:25:07;;;;;;;9.40;5.70;;;4.10;99.90;;;;;;6226256;23;20166;-72
2023/04/26 05:27:33;;;;;;;9.83;5.70;;;4.20;99.90;;;;;;6200699;23;20155;-70
2023/04/26 05:30:19;;;;;;;13.80;6.13;;;4.30;99.90;;;;;;6200510;23;20396;-71
2023/04/26 05:32:58;;;;;;;7.73;4.70;;;4.60;99.90;;;;;;6201213;23;20384;-74
2023/04/26 05:36:00;;;;;;;9.43;5.20;;;5.00;99.90;;;;;;6193629;23;20385;-72
2023/04/26 05:38:26;;;;;;;19.53;6.60;;;5.40;99.90;;;;;;6219190;23;20373;-72
2023/04/26 05:40:51;;;;;;;15.93;6.37;;;5.70;99.90;;;;;;6200417;23;20475;-72
2023/04/26 05:43:17;;;;;;;18.77;6.87;;;6.00;99.90;;;;;;6199653;23;20393;-74
2023/04/26 05:45:53;;;;;;;16.57;7.73;;;6.40;99.90;;;;;;6204215;23;20438;-74
2023/04/26 05:48:21;;;;;;;11.30;6.30;;;6.80;95.50;;;;;;6198655;23;20176;-75
2023/04/26 05:50:47;;;;;;;13.37;6.50;;;7.00;93.40;;;;;;6199737;23;20841;-71
2023/04/26 05:53:13;;;;;;;13.63;6.13;;;7.00;90.90;;;;;;6199417;23;20366;-75
2023/04/26 05:55:40;;;;;;;14.97;7.10;;;7.10;92.00;;;;;;6236814;23;20356;-71
2023/04/26 05:58:07;;;;;;;13.00;6.50;;;7.10;90.00;;;;;;6209857;23;20143;-73
2023/04/26 06:00:34;;;;;;;8.83;5.20;;;7.10;91.30;;;;;;6184185;23;20405;-73
2023/04/26 06:02:59;;;;;;;17.03;7.30;;;7.20;91.00;;;;;;6205054;23;20496;-74
2023/04/26 06:05:25;;;;;;;16.37;8.47;;;7.20;90.00;;;;;;6228340;23;20412;-74
2023/04/26 06:07:51;;;;;;;14.60;7.53;;;7.20;90.00;;;;;;6199799;23;20165;-73
2023/04/26 06:10:17;;;;;;;15.27;8.60;;;7.30;87.40;;;;;;6175935;23;20456;-73
2023/04/26 06:12:43;;;;;;;73.17;37.20;;;7.40;87.20;;;;;;6201359;23;20410;-71
2023/04/26 06:15:10;;;;;;;19.93;7.57;;;7.40;86.20;;;;;;6179775;23;20146;-75
2023/04/26 06:17:38;;;;;;;19.27;8.63;;;7.30;85.90;;;;;;6178967;23;20718;-72
2023/04/26 06:20:04;;;;;;;12.73;6.80;;;7.10;87.90;;;;;;6199937;23;20404;-72
2023/04/26 06:22:30;;;;;;;12.30;7.77;;;7.10;87.50;;;;;;6201128;23;20173;-74
2023/04/26 06:24:56;;;;;;;20.77;9.40;;;7.00;88.60;;;;;;6204049;23;20421;-76
2023/04/26 06:27:21;;;;;;;12.10;7.30;;;6.90;90.10;;;;;;6204277;23;20421;-74
2023/04/26 06:29:49;;;;;;;17.60;8.70;;;6.90;90.50;;;;;;6174616;23;20435;-72
2023/04/26 06:32:15;;;;;;;15.23;7.70;;;7.10;90.40;;;;;;6201732;23;20388;-73
2023/04/26 06:34:44;;;;;;;14.40;7.67;;;7.30;90.20;;;;;;6200042;23;20395;-73
2023/04/26 06:37:10;;;;;;;13.40;6.20;;;7.50;88.50;;;;;;6226152;23;20721;-73
2023/04/26 06:39:38;;;;;;;11.13;6.30;;;7.70;82.50;;;;;;6200861;23;20401;-73
2023/04/26 06:42:05;;;;;;;17.17;7.93;;;7.90;79.00;;;;;;6200069;23;20759;-73
2023/04/26 06:44:48;;;;;;;15.90;6.33;;;8.00;76.60;;;;;;6200653;23;20177;-75
2023/04/26 06:47:16;;;;;;;11.80;5.83;;;8.10;74.40;;;;;;6202320;23;20813;-74
2023/04/26 06:49:41;;;;;;;13.47;6.10;;;8.00;73.90;;;;;;6228549;23;20399;-73
2023/04/26 06:52:07;;;;;;;22.10;8.27;;;8.10;74.70;;;;;;6228102;23;20154;-74
2023/04/26 06:54:32;;;;;;;15.53;7.37;;;8.00;74.60;;;;;;6203222;23;20235;-76
2023/04/26 06:56:58;;;;;;;14.13;6.57;;;8.10;75.10;;;;;;6206756;23;20157;-73
2023/04/26 06:59:24;;;;;;;14.10;6.37;;;8.20;72.10;;;;;;6201835;23;20161;-75
2023/04/26 07:01:50;;;;;;;11.43;6.67;;;8.30;69.40;;;;;;6227839;23;20142;-75
2023/04/26 07:04:17;;;;;;;15.07;7.03;;;8.30;70.20;;;;;;6226404;23;20201;-75
2023/04/26 07:06:43;;;;;;;9.93;5.10;;;8.30;70.40;;;;;;6227525;23;20430;-73
2023/04/26 07:09:08;;;;;;;7.97;5.70;;;8.40;70.90;;;;;;6228265;23;20403;-73
2023/04/26 07:11:34;;;;;;;5.10;3.43;;;8.50;67.70;;;;;;6194949;23;20183;-74
2023/04/26 07:14:00;;;;;;;10.97;6.23;;;8.60;68.10;;;;;;6176391;23;20218;-73
2023/04/26 07:16:26;;;;;;;15.80;7.47;;;8.60;66.90;;;;;;6195133;23;20150;-75
2023/04/26 07:18:52;;;;;;;11.10;5.33;;;8.60;66.70;;;;;;6197933;23;20484;-75
2023/04/26 07:21:18;;;;;;;15.00;6.80;;;8.80;67.30;;;;;;6176920;23;20161;-76
2023/04/26 07:23:44;;;;;;;10.40;5.40;;;8.80;64.20;;;;;;6197472;23;20134;-75
2023/04/26 07:26:10;;;;;;;11.13;5.53;;;8.80;63.70;;;;;;6197091;23;20131;-75
2023/04/26 07:28:36;;;;;;;10.70;6.33;;;8.70;64.40;;;;;;6196393;23;20374;-74
2023/04/26 07:31:02;;;;;;;10.10;6.50;;;8.70;65.20;;;;;;6198738;23;20409;-74
2023/04/26 07:33:28;;;;;;;8.93;5.23;;;8.70;62.60;;;;;;6199602;23;20448;-74
2023/04/26 07:35:55;;;;;;;10.20;4.00;;;8.80;62.70;;;;;;6200252;23;20362;-75
2023/04/26 07:38:22;;;;;;;10.13;3.97;;;9.00;60.90;;;;;;6173807;23;20142;-75
2023/04/26 07:40:47;;;;;;;10.50;4.60;;;9.10;58.00;;;;;;6173166;23;20468;-75
2023/04/26 07:43:14;;;;;;;12.30;5.17;;;9.20;57.30;;;;;;6197337;23;20366;-76
2023/04/26 07:45:40;;;;;;;11.93;3.67;;;9.20;56.20;;;;;;6170920;23;20185;-73
2023/04/26 07:48:06;;;;;;;13.03;7.00;;;9.30;56.30;;;;;;6170212;23;20367;-74
2023/04/26 07:50:32;;;;;;;10.67;4.70;;;9.30;56.00;;;;;;6198234;23;20417;-76
2023/04/26 07:52:57;;;;;;;8.13;3.60;;;9.30;56.50;;;;;;6198721;23;20370;-73
2023/04/26 07:55:23;;;;;;;10.87;4.17;;;9.30;56.10;;;;;;6201950;23;20153;-75
2023/04/26 07:57:49;;;;;;;6.07;4.27;;;9.40;55.20;;;;;;6180762;23;20281;-75
2023/04/26 08:00:16;;;;;;;19.13;7.27;;;9.50;55.00;;;;;;6203616;23;20166;-77
2023/04/26 08:02:41;;;;;;;11.03;4.47;;;9.50;54.20;;;;;;6199011;23;20202;-73
2023/04/26 08:05:07;;;;;;;11.57;3.90;;;9.70;54.40;;;;;;6196090;23;20410;-76
2023/04/26 08:07:33;;;;;;;14.00;3.60;;;9.90;53.80;;;;;;6197834;23;20135;-76
2023/04/26 08:09:59;;;;;;;9.47;4.67;;;9.90;54.10;;;;;;6197946;23;20190;-74
2023/04/26 08:12:25;;;;;;;6.17;3.33;;;10.00;53.00;;;;;;6219981;23;20404;-75
2023/04/26 08:14:51;;;;;;;11.33;4.10;;;10.00;52.40;;;;;;6181542;23;20142;-75
2023/04/26 08:17:19;;;;;;;10.30;3.90;;;9.90;52.80;;;;;;6230577;23;20193;-73
2023/04/26 08:19:45;;;;;;;7.00;3.70;;;10.10;52.40;;;;;;6229587;23;20392;-73
2023/04/26 08:22:10;;;;;;;9.43;4.37;;;10.30;52.20;;;;;;6201958;23;20146;-73
2023/04/26 08:24:36;;;;;;;7.20;3.17;;;10.30;52.10;;;;;;6206990;23;20165;-74
2023/04/26 08:27:02;;;;;;;6.10;2.80;;;10.50;52.20;;;;;;6232786;23;20130;-76
2023/04/26 08:29:28;;;;;;;7.20;3.30;;;10.60;51.60;;;;;;6184160;23;20177;-73
2023/04/26 08:31:54;;;;;;;11.23;5.17;;;10.70;51.50;;;;;;6232344;23;20368;-74
2023/04/26 08:34:20;;;;;;;9.53;4.63;;;10.50;51.00;;;;;;6207460;23;20149;-76
2023/04/26 08:36:45;;;;;;;11.83;4.10;;;10.50;51.10;;;;;;6208046;23;20435;-76
2023/04/26 08:39:11;;;;;;;10.60;4.43;;;10.60;51.40;;;;;;6205764;23;20168;-74
2023/04/26 08:41:49;;;;;;;12.10;3.53;;;10.50;50.90;;;;;;6176781;23;20150;-72
2023/04/26 08:44:14;;;;;;;7.47;3.80;;;10.80;51.60;;;;;;6178746;23;20176;-75
2023/04/26 08:47:08;;;;;;;9.60;4.43;;;11.10;50.60;;;;;;6174666;23;20683;-72
2023/04/26 08:49:41;;;;;;;6.30;4.10;;;11.30;49.90;;;;;;6209775;23;20168;-75
2023/04/26 08:52:11;;;;;;;10.33;5.00;;;11.60;49.90;;;;;;6199902;23;20397;-76
2023/04/26 08:54:39;;;;;;;5.23;2.87;;;11.80;48.90;;;;;;6228154;23;20385;-76
2023/04/26 08:57:06;;;;;;;8.07;3.93;;;11.90;48.80;;;;;;6180786;23;20376;-73
2023/04/26 08:59:36;;;;;;;15.70;7.40;;;12.00;47.90;;;;;;6229202;23;20408;-75
2023/04/26 09:02:05;;;;;;;12.20;7.70;;;11.80;48.20;;;;;;6205473;23;20441;-76
2023/04/26 09:04:32;;;;;;;7.43;3.90;;;11.60;47.60;;;;;;6180855;23;20432;-74
2023/04/26 09:07:03;;;;;;;4.90;2.70;;;11.40;48.00;;;;;;6204509;23;20372;-72
2023/04/26 09:09:41;;;;;;;9.80;6.00;;;11.60;48.50;;;;;;6181024;23;20455;-73
2023/04/26 09:12:07;;;;;;;11.80;5.03;;;11.60;47.50;;;;;;6204322;23;20416;-74
2023/04/26 09:14:33;;;;;;;11.30;5.53;;;11.50;48.00;;;;;;6205948;23;20381;-75
2023/04/26 09:16:59;;;;;;;7.67;4.00;;;11.60;47.90;;;;;;6235119;23;20361;-75
2023/04/26 09:19:38;;;;;;;5.30;3.80;;;11.50;47.90;;;;;;6207553;23;20167;-73
2023/04/26 09:22:05;;;;;;;12.33;5.70;;;11.60;47.80;;;;;;6182856;23;20375;-74
2023/04/26 09:24:53;;;;;;;6.87;3.77;;;11.70;47.40;;;;;;6207599;23;20413;-75
2023/04/26 09:27:20;;;;;;;9.53;4.70;;;11.60;46.00;;;;;;6207734;23;20373;-75
2023/04/26 09:29:58;;;;;;;6.00;3.77;;;11.20;45.30;;;;;;6205244;23;20440;-76
2023/04/26 09:32:25;;;;;;;8.00;4.10;;;11.30;46.20;;;;;;6179749;23;20364;-73
2023/04/26 09:34:50;;;;;;;14.70;4.70;;;11.30;46.30;;;;;;6233771;23;20388;-75
2023/04/26 09:37:16;;;;;;;6.40;4.10;;;11.40;46.10;;;;;;6229612;23;20770;-74
2023/04/26 09:39:42;;;;;;;10.60;5.23;;;11.50;46.10;;;;;;6202358;23;20167;-74
2023/04/26 09:42:10;;;;;;;5.13;3.43;;;11.60;45.50;;;;;;6179951;23;20454;-75
2023/04/26 09:44:36;;;;;;;6.97;4.23;;;11.70;45.40;;;;;;6231971;23;20137;-75
2023/04/26 09:47:09;;;;;;;10.13;3.23;;;11.70;45.00;;;;;;6203595;23;20373;-75
2023/04/26 09:50:08;;;;;;;5.50;3.07;;;11.90;44.80;;;;;;6178779;23;20403;-76
2023/04/26 09:52:42;;;;;;;12.10;5.03;;;11.90;44.70;;;;;;6148756;23;20385;-72
2023/04/26 09:55:08;;;;;;;9.90;4.37;;;11.60;45.10;;;;;;6233729;23;20492;-75
2023/04/26 09:57:43;;;;;;;11.17;7.27;;;11.40;45.50;;;;;;6180170;23;20415;-76
2023/04/26 10:00:11;;;;;;;8.27;4.83;;;11.10;46.10;;;;;;6205803;23;20432;-76
2023/04/26 10:02:37;;;;;;;5.80;3.40;;;11.00;46.40;;;;;;6233025;23;20429;-75
2023/04/26 10:05:06;;;;;;;8.87;4.90;;;11.30;46.70;;;;;;6208411;23;20382;-75
2023/04/26 10:07:33;;;;;;;13.37;4.93;;;11.60;45.90;;;;;;6230468;23;20169;-74
2023/04/26 10:10:00;;;;;;;16.20;5.90;;;11.50;45.00;;;;;;6232825;23;20396;-75
2023/04/26 10:12:26;;;;;;;6.00;4.00;;;11.50;45.40;;;;;;6179597;23;20673;-74
2023/04/26 10:14:51;;;;;;;9.20;3.80;;;11.50;45.40;;;;;;6205007;23;20428;-73
2023/04/26 10:17:18;;;;;;;7.23;2.83;;;11.80;46.10;;;;;;6182716;23;20439;-74
2023/04/26 10:19:47;;;;;;;10.90;5.60;;;12.10;45.00;;;;;;6179220;23;20163;-72
2023/04/26 10:22:21;;;;;;;7.77;5.20;;;12.30;43.80;;;;;;6183242;23;20790;-75
2023/04/26 10:24:47;;;;;;;18.37;5.97;;;12.30;43.30;;;;;;6209030;23;20475;-75
2023/04/26 10:27:13;;;;;;;6.90;5.10;;;12.30;42.70;;;;;;6205712;23;20371;-75
2023/04/26 10:30:12;;;;;;;11.63;5.40;;;12.10;43.20;;;;;;6178462;23;20400;-72
2023/04/26 10:32:53;;;;;;;9.20;6.10;;;12.30;43.00;;;;;;6183112;23;20160;-74
2023/04/26 10:35:20;;;;;;;4.77;3.40;;;12.80;42.80;;;;;;6231685;23;20466;-73
2023/04/26 10:37:58;;;;;;;6.47;3.87;;;13.00;42.50;;;;;;6206284;23;20377;-74
2023/04/26 10:40:25;;;;;;;6.80;4.93;;;13.30;41.20;;;;;;6229193;23;20393;-74
2023/04/26 10:43:10;;;;;;;14.97;4.23;;;13.20;40.60;;;;;;6204126;23;20360;-73
2023/04/26 10:45:38;;;;;;;9.03;3.67;;;13.20;40.20;;;;;;6205009;23;20426;-75
2023/04/26 10:48:16;;;;;;;5.70;4.10;;;13.20;40.30;;;;;;6206192;23;20832;-75
2023/04/26 10:51:00;;;;;;;10.20;3.90;;;13.30;40.30;;;;;;6178223;23;20430;-71
2023/04/26 10:53:30;;;;;;;4.37;3.47;;;13.40;40.70;;;;;;6180298;23;20662;-75
2023/04/26 10:55:56;;;;;;;7.37;4.03;;;13.60;39.90;;;;;;6204377;23;20442;-73
2023/04/26 10:58:31;;;;;;;7.20;3.57;;;13.50;39.90;;;;;;6205505;23;20357;-74
2023/04/26 11:01:05;;;;;;;5.13;3.00;;;13.70;40.00;;;;;;6178979;23;20405;-73
2023/04/26 11:03:31;;;;;;;11.30;6.10;;;13.80;39.90;;;;;;6210049;23;20380;-75
2023/04/26 11:05:58;;;;;;;7.50;4.20;;;13.90;39.60;;;;;;6212546;23;20782;-75
2023/04/26 11:08:30;;;;;;;10.87;4.70;;;13.90;39.20;;;;;;6186980;23;20371;-75
2023/04/26 11:11:02;;;;;;;10.93;4.37;;;13.60;38.90;;;;;;6236240;23;20359;-75
2023/04/26 11:13:32;;;;;;;10.20;5.77;;;13.40;39.70;;;;;;6204048;23;20375;-74
2023/04/26 11:16:03;;;;;;;8.83;4.30;;;13.30;39.40;;;;;;6182951;23;20420;-73
2023/04/26 11:18:29;;;;;;;6.00;4.50;;;13.10;38.80;;;;;;6207773;23;20364;-76
2023/04/26 11:20:56;;;;;;;7.60;3.50;;;13.10;38.20;;;;;;6206565;23;20364;-74
2023/04/26 11:23:22;;;;;;;8.47;3.90;;;13.20;38.50;;;;;;6179344;23;20376;-74
2023/04/26 11:25:48;;;;;;;6.57;4.40;;;13.30;37.30;;;;;;6182305;23;20381;-75
2023/04/26 11:28:15;;;;;;;5.57;3.13;;;13.50;38.00;;;;;;6183767;23;20404;-74
2023/04/26 11:30:42;;;;;;;9.30;4.60;;;13.60;37.30;;;;;;6183536;23;20401;-75
2023/04/26 11:33:19;;;;;;;6.47;3.57;;;13.90;36.70;;;;;;6205404;23;20396;-75
2023/04/26 11:35:57;;;;;;;12.40;4.73;;;13.90;36.20;;;;;;6207066;23;20424;-76
2023/04/26 11:38:24;;;;;;;3.60;2.90;;;13.60;35.60;;;;;;6178715;23;20687;-73
2023/04/26 11:41:03;;;;;;;5.57;2.73;;;13.60;35.70;;;;;;6205528;23;20390;-74
2023/04/26 11:43:35;;;;;;;5.03;3.73;;;14.00;36.10;;;;;;6179667;23;20384;-74
2023/04/26 11:46:01;;;;;;;5.53;2.93;;;14.00;35.80;;;;;;6180422;23;20422;-75
2023/04/26 11:48:29;;;;;;;7.13;3.93;;;14.30;35.60;;;;;;6205324;23;20801;-73
2023/04/26 11:50:57;;;;;;;9.10;4.00;;;14.60;35.00;;;;;;6183733;23;20431;-76
2023/04/26 11:53:24;;;;;;;8.30;3.73;;;14.60;33.70;;;;;;6184243;23;20377;-76
2023/04/26 11:55:50;;;;;;;8.27;3.00;;;14.60;34.10;;;;;;6208340;23;20401;-74
2023/04/26 11:58:16;;;;;;;6.97;2.67;;;14.70;34.30;;;;;;6232303;23;20706;-76
2023/04/26 12:01:21;;;;;;;8.73;3.90;;;15.00;34.30;;;;;;6209044;23;20397;-74
2023/04/26 12:03:53;;;;;;;6.57;3.47;;;15.20;34.20;;;;;;6109717;23;20407;-76
2023/04/26 12:06:19;;;;;;;8.40;4.30;;;15.20;34.40;;;;;;6208697;23;20392;-77
2023/04/26 12:08:50;;;;;;;9.37;4.00;;;14.90;35.20;;;;;;6181419;23;20381;-75
2023/04/26 12:11:16;;;;;;;7.33;4.27;;;14.90;34.70;;;;;;6199960;23;20422;-75
2023/04/26 12:13:42;;;;;;;8.27;3.57;;;14.60;35.10;;;;;;6199656;23;20365;-75
2023/04/26 12:16:08;;;;;;;7.53;3.90;;;14.20;35.90;;;;;;6173946;23;20488;-75
2023/04/26 12:18:34;;;;;;;5.50;3.50;;;14.20;35.90;;;;;;6202353;23;20171;-75
2023/04/26 12:21:00;;;;;;;9.60;3.23;;;14.30;36.10;;;;;;6207306;23;20352;-76
2023/04/26 12:23:39;;;;;;;9.07;3.77;;;14.50;35.90;;;;;;6206754;23;20395;-76
2023/04/26 12:26:09;;;;;;;6.80;3.03;;;14.90;35.30;;;;;;6176631;23;20438;-76
2023/04/26 12:28:35;;;;;;;9.07;4.03;;;14.70;35.80;;;;;;6199500;23;20370;-72
2023/04/26 12:31:02;;;;;;;7.53;3.33;;;14.70;35.50;;;;;;6172528;23;20368;-75
2023/04/26 12:33:29;;;;;;;3.70;2.73;;;14.60;35.90;;;;;;6176081;23;20155;-76
2023/04/26 12:35:56;;;;;;;4.40;2.30;;;14.80;36.10;;;;;;6201272;23;20446;-74
2023/04/26 12:38:24;;;;;;;7.80;3.93;;;15.00;36.00;;;;;;6204132;23;20590;-76
2023/04/26 12:40:51;;;;;;;7.07;3.50;;;14.80;35.60;;;;;;6201685;23;20397;-76
2023/04/26 12:43:18;;;;;;;7.50;4.10;;;15.10;35.60;;;;;;6174738;23;20205;-74
2023/04/26 12:45:44;;;;;;;9.20;4.63;;;15.10;35.30;;;;;;6200976;23;20440;-76
2023/04/26 12:48:12;;;;;;;11.73;4.07;;;14.90;35.10;;;;;;6179117;23;20860;-77
2023/04/26 12:50:38;;;;;;;8.37;4.03;;;14.40;35.40;;;;;;6201884;23;20457;-75
2023/04/26 12:53:03;;;;;;;8.10;3.00;;;14.50;36.00;;;;;;6200258;23;20154;-74